WIII/CGK METAR and TAF weather

Enter ICAO airport designator
Station Type Date Time Source
WIII METAR 2019/04/18 14:30 UTC NOAA

WIII 181430Z 20004KT 7000 BKN020 26/23 Q1010 NOSIG


Station Type Date Time Source
WIII Decoded METAR 2019/04/18 14:30 UTC NOAA

Jakarta / Soekarno-Hatta, Indonesia (WIII) 06-07S 106-39E 8M
Apr 18, 2019 - 10:30 AM EDT / 2019.04.18 1430 UTC
Wind: from the SSW (200 degrees) at 5 MPH (4 KT):0
Visibility: 4 mile(s):0
Sky conditions: mostly cloudy
Temperature: 78 F (26 C)
Dew Point: 73 F (23 C)
Relative Humidity: 83%
Pressure (altimeter): 29.83 in. Hg (1010 hPa)
ob: WIII 181430Z 20004KT 7000 BKN020 26/23 Q1010 NOSIG
cycle: 14

Station Type Date Time Source
WIII TAF 2019/04/18 12:48 UTC NOAA

TAF WIII 181100Z 1812/1918 05006KT 8000 SCT020
BECMG 1816/1818 VRB02KT 4000 HZ

Example: see airport list